Time;durP1;ratioP1;P1;durP2;ratioP2;P2;SDS_P1;SDS_P2;PMS_P1;PMS_P2;Temp;Humidity;BMP_temperature;BMP_pressure;BME280_temperature;BME280_humidity;BME280_pressure;Samples;Min_cycle;Max_cycle;Signal;HPM_P1;HPM_P2
2023/01/30 00:00:01;;;;;;;17.45;10.25;;;;;;;-0.02;75.24;100258.53;346570;28;1215;-70
2023/01/30 00:00:13;;;;;;;18.20;10.63;;;;;;;-0.04;75.55;100259.28;346516;28;1055;-70
2023/01/30 00:00:26;;;;;;;19.50;11.07;;;;;;;-0.09;76.02;100256.66;346163;28;1102;-69
2023/01/30 00:00:38;;;;;;;21.08;11.48;;;;;;;-0.23;76.24;100258.06;346111;28;1059;-68
2023/01/30 00:00:55;;;;;;;21.20;11.55;;;;;;;-0.25;76.30;100252.06;346253;28;1072;-68
2023/01/30 00:01:13;;;;;;;19.20;11.07;;;;;;;-0.28;76.22;100265.66;346472;28;1022;-68
2023/01/30 00:01:29;;;;;;;19.33;10.77;;;;;;;-0.28;76.33;100260.53;346472;28;1308;-68
2023/01/30 00:01:42;;;;;;;18.70;10.70;;;;;;;-0.23;75.94;100252.97;346280;28;1023;-69
2023/01/30 00:01:54;;;;;;;20.23;10.85;;;;;;;-0.26;76.24;100258.88;346239;28;1042;-69
2023/01/30 00:02:06;;;;;;;21.55;11.00;;;;;;;-0.23;76.42;100258.06;346343;28;1235;-70
2023/01/30 00:02:18;;;;;;;20.00;10.90;;;;;;;-0.30;76.08;100266.41;346451;28;1042;-70
2023/01/30 00:02:30;;;;;;;18.33;10.70;;;;;;;-0.29;76.08;100256.25;346252;28;1276;-70
2023/01/30 00:02:42;;;;;;;18.00;10.73;;;;;;;-0.29;76.89;100257.94;346316;28;1194;-69
2023/01/30 00:02:54;;;;;;;19.20;11.00;;;;;;;-0.35;76.05;100252.72;346368;28;1269;-67
2023/01/30 00:03:06;;;;;;;18.15;10.75;;;;;;;-0.28;77.02;100255.44;346004;28;1049;-68
2023/01/30 00:03:19;;;;;;;18.75;10.50;;;;;;;-0.25;76.29;100254.63;346263;28;1042;-68
2023/01/30 00:03:31;;;;;;;18.55;10.57;;;;;;;-0.28;76.47;100262.22;346422;28;1130;-68
2023/01/30 00:03:44;;;;;;;18.88;10.63;;;;;;;-0.37;76.54;100255.22;346098;28;1055;-70
2023/01/30 00:03:56;;;;;;;20.15;11.20;;;;;;;-0.34;76.61;100259.53;346479;28;1056;-68
2023/01/30 00:04:08;;;;;;;19.30;10.93;;;;;;;-0.31;76.85;100250.25;346198;28;1345;-68
2023/01/30 00:04:20;;;;;;;17.70;10.85;;;;;;;-0.36;76.58;100256.06;346172;28;1059;-69
2023/01/30 00:04:32;;;;;;;17.65;10.90;;;;;;;-0.35;77.05;100255.25;346509;28;1181;-68
2023/01/30 00:04:44;;;;;;;17.63;10.65;;;;;;;-0.31;76.96;100249.38;346271;28;1135;-68
2023/01/30 00:04:56;;;;;;;18.30;10.23;;;;;;;-0.28;76.87;100257.09;346317;28;979;-68
2023/01/30 00:05:08;;;;;;;19.35;10.55;;;;;;;-0.31;76.73;100257.06;346242;28;1020;-68
2023/01/30 00:05:21;;;;;;;19.85;10.77;;;;;;;-0.37;76.57;100254.38;346525;28;1027;-68
2023/01/30 00:05:33;;;;;;;19.05;10.57;;;;;;;-0.32;76.47;100252.75;346434;28;1133;-68
2023/01/30 00:05:45;;;;;;;19.65;10.73;;;;;;;-0.32;76.41;100252.75;346451;28;1046;-68
2023/01/30 00:05:57;;;;;;;21.05;10.82;;;;;;;-0.28;77.24;100250.31;346413;28;1175;-68
2023/01/30 00:06:09;;;;;;;21.30;11.07;;;;;;;-0.24;76.69;100256.38;346352;28;1290;-68
2023/01/30 00:06:22;;;;;;;20.83;11.18;;;;;;;-0.29;76.29;100248.59;346293;28;1031;-67
2023/01/30 00:06:36;;;;;;;20.85;11.38;;;;;;;-0.28;76.90;100249.44;346900;28;1256;-69
2023/01/30 00:06:50;;;;;;;20.50;11.23;;;;;;;-0.29;76.28;100252.84;346239;28;1365;-68
2023/01/30 00:07:02;;;;;;;20.63;11.52;;;;;;;-0.26;76.24;100248.66;346384;28;1102;-68
2023/01/30 00:07:14;;;;;;;19.80;11.73;;;;;;;-0.31;76.95;100244.28;346214;28;1041;-68
2023/01/30 00:07:26;;;;;;;19.88;11.35;;;;;;;-0.32;76.41;100247.66;345831;28;1022;-69
2023/01/30 00:07:38;;;;;;;19.27;11.10;;;;;;;-0.33;76.42;100245.94;346123;28;1104;-68
2023/01/30 00:07:50;;;;;;;20.08;10.77;;;;;;;-0.29;76.50;100247.72;346465;28;1039;-70
2023/01/30 00:08:02;;;;;;;19.83;10.65;;;;;;;-0.26;76.47;100242.69;346316;28;1141;-69
2023/01/30 00:08:15;;;;;;;20.13;11.00;;;;;;;-0.33;76.74;100246.78;346423;28;1193;-69
2023/01/30 00:08:27;;;;;;;19.95;11.35;;;;;;;-0.29;76.90;100245.16;346477;28;1047;-70
2023/01/30 00:08:39;;;;;;;19.73;11.40;;;;;;;-0.26;76.61;100245.25;346462;28;1128;-69
2023/01/30 00:08:51;;;;;;;18.45;10.65;;;;;;;-0.28;77.15;100236.66;346450;28;1057;-69
2023/01/30 00:09:04;;;;;;;19.23;10.57;;;;;;;-0.21;76.13;100241.09;344915;28;1164;-68
2023/01/30 00:09:16;;;;;;;18.80;10.35;;;;;;;-0.26;76.08;100232.47;344798;28;1323;-68
2023/01/30 00:09:28;;;;;;;19.70;10.52;;;;;;;-0.24;76.52;100241.03;345011;28;1099;-68
2023/01/30 00:09:40;;;;;;;19.40;10.45;;;;;;;-0.28;76.67;100237.53;344765;28;1234;-68
2023/01/30 00:09:52;;;;;;;19.50;10.90;;;;;;;-0.31;76.82;100236.63;344898;28;1031;-68
2023/01/30 00:10:04;;;;;;;19.40;10.98;;;;;;;-0.36;76.51;100244.19;345032;28;1148;-68
2023/01/30 00:10:16;;;;;;;18.15;10.77;;;;;;;-0.42;77.01;100236.41;344616;28;1142;-68
2023/01/30 00:10:28;;;;;;;17.98;10.55;;;;;;;-0.41;76.62;100238.09;344831;28;1050;-68
2023/01/30 00:10:40;;;;;;;17.50;10.57;;;;;;;-0.36;76.50;100233.97;344989;28;1180;-69
2023/01/30 00:10:52;;;;;;;18.05;10.63;;;;;;;-0.38;76.65;100238.19;344926;28;1238;-70
2023/01/30 00:11:07;;;;;;;18.23;10.45;;;;;;;-0.39;76.75;100236.44;344886;28;1055;-71
2023/01/30 00:11:19;;;;;;;19.08;10.35;;;;;;;-0.50;77.17;100233.69;346281;28;1057;-69
2023/01/30 00:11:32;;;;;;;19.63;11.10;;;;;;;-0.43;77.13;100232.97;346334;28;1265;-69
2023/01/30 00:11:44;;;;;;;18.63;11.10;;;;;;;-0.43;77.17;100235.50;346254;28;1139;-70
2023/01/30 00:11:56;;;;;;;18.08;10.90;;;;;;;-0.41;77.14;100233.84;346309;28;1075;-70
2023/01/30 00:12:08;;;;;;;19.05;11.05;;;;;;;-0.40;76.94;100234.75;346235;28;1132;-69
2023/01/30 00:12:20;;;;;;;19.42;11.32;;;;;;;-0.49;77.03;100235.38;346695;28;1033;-69
2023/01/30 00:12:32;;;;;;;19.23;11.25;;;;;;;-0.46;77.12;100229.50;346296;28;1209;-69
2023/01/30 00:12:44;;;;;;;18.27;10.82;;;;;;;-0.48;76.91;100234.56;346162;28;1979;-69
2023/01/30 00:12:58;;;;;;;17.85;10.68;;;;;;;-0.41;77.32;100238.97;345551;28;1383;-69
2023/01/30 00:13:10;;;;;;;19.40;11.25;;;;;;;-0.39;77.49;100230.50;344925;28;1066;-68
2023/01/30 00:13:22;;;;;;;19.33;11.45;;;;;;;-0.41;77.58;100233.84;345123;28;1094;-70
2023/01/30 00:13:35;;;;;;;18.48;11.20;;;;;;;-0.39;76.94;100226.22;345082;28;1051;-69
2023/01/30 00:13:48;;;;;;;20.30;11.05;;;;;;;-0.41;76.91;100228.75;344990;28;1108;-68
2023/01/30 00:14:00;;;;;;;20.50;10.98;;;;;;;-0.39;76.85;100225.38;344633;28;1318;-69
2023/01/30 00:14:12;;;;;;;19.60;11.02;;;;;;;-0.44;76.96;100225.28;345044;28;1156;-70
2023/01/30 00:14:24;;;;;;;19.65;11.13;;;;;;;-0.39;77.56;100230.50;344963;28;1151;-69
2023/01/30 00:14:36;;;;;;;19.90;10.98;;;;;;;-0.43;76.74;100221.88;344836;28;1142;-68
2023/01/30 00:14:48;;;;;;;18.90;10.43;;;;;;;-0.41;76.96;100233.00;344626;28;1019;-68
2023/01/30 00:15:00;;;;;;;18.85;10.52;;;;;;;-0.48;77.21;100229.47;344921;28;1011;-68
2023/01/30 00:15:12;;;;;;;19.88;10.77;;;;;;;-0.45;77.49;100229.50;344959;28;1018;-68
2023/01/30 00:15:24;;;;;;;20.60;10.98;;;;;;;-0.41;77.02;100226.19;344839;28;1042;-68
2023/01/30 00:15:36;;;;;;;20.52;11.40;;;;;;;-0.43;77.58;100225.28;344949;28;1091;-68
2023/01/30 00:15:48;;;;;;;20.85;11.60;;;;;;;-0.48;77.04;100221.81;344913;28;1031;-68
2023/01/30 00:16:00;;;;;;;21.50;11.68;;;;;;;-0.46;77.22;100227.81;345116;28;1200;-70
2023/01/30 00:16:12;;;;;;;21.17;11.95;;;;;;;-0.45;77.88;100221.00;344932;28;1067;-70
2023/01/30 00:16:24;;;;;;;21.80;12.25;;;;;;;-0.40;77.74;100229.63;345089;28;1290;-70
2023/01/30 00:16:37;;;;;;;22.08;12.07;;;;;;;-0.41;77.71;100228.75;345163;28;1055;-68
2023/01/30 00:16:49;;;;;;;22.67;11.60;;;;;;;-0.42;77.53;100228.75;344866;28;1480;-68
2023/01/30 00:17:01;;;;;;;20.58;10.93;;;;;;;-0.40;77.18;100227.06;344900;28;1069;-68
2023/01/30 00:17:13;;;;;;;20.92;11.15;;;;;;;-0.45;77.81;100229.50;345275;28;1267;-68
2023/01/30 00:17:25;;;;;;;21.90;11.43;;;;;;;-0.49;77.75;100235.38;344650;28;869;-68
2023/01/30 00:17:37;;;;;;;21.35;11.32;;;;;;;-0.47;77.11;100226.06;345380;28;1039;-68
2023/01/30 00:17:49;;;;;;;20.50;11.50;;;;;;;-0.46;77.89;100225.25;345114;28;1136;-67
2023/01/30 00:18:01;;;;;;;19.30;11.27;;;;;;;-0.38;77.37;100224.53;344937;28;1153;-68
2023/01/30 00:18:13;;;;;;;19.00;11.20;;;;;;;-0.49;77.28;100220.06;344918;28;1206;-69
2023/01/30 00:18:25;;;;;;;19.77;11.23;;;;;;;-0.45;77.73;100232.06;345397;28;1177;-68
2023/01/30 00:18:38;;;;;;;21.17;11.48;;;;;;;-0.49;77.20;100230.28;344901;28;1052;-68
2023/01/30 00:18:50;;;;;;;21.00;11.35;;;;;;;-0.44;77.58;100226.16;345066;28;1015;-68
2023/01/30 00:19:02;;;;;;;21.55;11.48;;;;;;;-0.42;77.76;100224.47;345110;28;1208;-68
2023/01/30 00:19:17;;;;;;;20.38;11.43;;;;;;;-0.50;77.42;100223.47;345188;28;1074;-68
2023/01/30 00:19:29;;;;;;;18.25;10.80;;;;;;;-0.52;77.92;100230.22;344785;28;1106;-68
2023/01/30 00:19:41;;;;;;;18.80;10.75;;;;;;;-0.45;77.99;100221.84;344904;28;1257;-67
2023/01/30 00:19:53;;;;;;;18.95;11.07;;;;;;;-0.47;77.78;100232.88;344831;28;1143;-67
2023/01/30 00:20:05;;;;;;;19.73;11.48;;;;;;;-0.45;77.85;100224.41;345086;28;1007;-68
2023/01/30 00:20:17;;;;;;;20.63;11.27;;;;;;;-0.48;77.11;100229.47;345387;28;720;-68
2023/01/30 00:20:30;;;;;;;21.02;11.02;;;;;;;-0.48;77.20;100226.06;344971;28;1305;-68
2023/01/30 00:20:42;;;;;;;21.20;10.88;;;;;;;-0.49;77.22;100225.16;344883;28;1020;-68
2023/01/30 00:20:58;;;;;;;21.42;11.07;;;;;;;-0.49;77.60;100234.53;345081;28;1038;-68
2023/01/30 00:21:13;;;;;;;21.00;11.13;;;;;;;-0.47;77.61;100228.63;344878;28;1263;-68
2023/01/30 00:21:25;;;;;;;19.35;11.07;;;;;;;-0.48;77.74;100226.91;345007;28;1089;-68
2023/01/30 00:21:37;;;;;;;19.13;11.23;;;;;;;-0.42;77.23;100233.84;344883;28;1308;-68
2023/01/30 00:21:49;;;;;;;20.25;11.30;;;;;;;-0.46;78.00;100226.94;344929;28;1177;-68
2023/01/30 00:22:01;;;;;;;19.63;10.90;;;;;;;-0.45;77.44;100229.50;345021;28;1072;-68
2023/01/30 00:22:13;;;;;;;19.38;10.82;;;;;;;-0.42;77.44;100236.41;344697;28;1144;-68
2023/01/30 00:22:25;;;;;;;19.88;11.23;;;;;;;-0.44;77.22;100238.91;345045;28;1266;-68
2023/01/30 00:22:37;;;;;;;18.38;11.10;;;;;;;-0.36;77.33;100235.63;345125;28;1273;-68
2023/01/30 00:22:50;;;;;;;19.88;10.98;;;;;;;-0.31;77.17;100244.28;344997;28;1079;-68
2023/01/30 00:23:11;;;;;;;18.85;10.98;;;;;;;-0.41;76.82;100233.84;344993;28;1051;-68
2023/01/30 00:23:25;;;;;;;17.85;10.70;;;;;;;-0.35;77.10;100237.38;345066;28;1176;-67
2023/01/30 00:23:37;;;;;;;18.90;11.00;;;;;;;-0.33;77.20;100243.38;344954;28;951;-68
2023/01/30 00:23:49;;;;;;;19.13;11.10;;;;;;;-0.35;76.82;100245.03;345136;28;1303;-68
2023/01/30 00:24:01;;;;;;;21.35;11.15;;;;;;;-0.36;76.88;100241.63;345024;28;1419;-69
2023/01/30 00:24:16;;;;;;;20.80;11.35;;;;;;;-0.35;76.74;100245.03;344849;28;975;-68
2023/01/30 00:24:28;;;;;;;19.65;11.38;;;;;;;-0.35;77.33;100242.50;344918;28;1253;-68
2023/01/30 00:24:40;;;;;;;20.48;11.20;;;;;;;-0.38;77.31;100247.53;344693;28;1204;-68
2023/01/30 00:24:52;;;;;;;22.30;11.60;;;;;;;-0.41;77.61;100246.63;344988;28;1159;-67
2023/01/30 00:25:05;;;;;;;22.58;12.02;;;;;;;-0.37;77.45;100251.81;345369;28;1189;-68
2023/01/30 00:25:17;;;;;;;22.30;12.07;;;;;;;-0.45;77.08;100247.38;344884;28;1004;-68
2023/01/30 00:25:30;;;;;;;20.50;11.35;;;;;;;-0.36;77.67;100248.41;344893;28;1225;-68
2023/01/30 00:25:46;;;;;;;19.20;11.20;;;;;;;-0.43;77.12;100255.94;345318;28;980;-68
2023/01/30 00:25:59;;;;;;;20.42;11.45;;;;;;;-0.39;76.95;100256.03;344893;28;1036;-69
2023/01/30 00:26:11;;;;;;;20.08;11.20;;;;;;;-0.45;77.21;100265.25;344937;28;1233;-67
2023/01/30 00:26:25;;;;;;;19.27;11.02;;;;;;;-0.49;77.39;100268.59;344896;28;1184;-69
2023/01/30 00:26:37;;;;;;;19.35;10.95;;;;;;;-0.52;76.90;100271.09;343623;28;1172;-69
2023/01/30 00:26:49;;;;;;;20.52;11.27;;;;;;;-0.57;77.67;100270.09;343511;28;1051;-69
2023/01/30 00:27:01;;;;;;;21.60;11.57;;;;;;;-0.51;77.35;100267.69;343379;28;1079;-70
2023/01/30 00:27:16;;;;;;;19.58;11.35;;;;;;;-0.51;77.24;100267.69;343455;28;843;-69
2023/01/30 00:27:29;;;;;;;17.98;11.00;;;;;;;-0.51;77.73;100275.34;343245;28;1297;-69
2023/01/30 00:27:41;;;;;;;20.15;11.25;;;;;;;-0.49;77.47;100272.84;343526;28;1018;-70
2023/01/30 00:27:53;;;;;;;21.58;11.40;;;;;;;-0.48;77.68;100278.00;343541;28;1032;-70
2023/01/30 00:28:04;;;;;;;21.48;11.55;;;;;;;-0.43;77.15;100273.81;343418;28;1146;-70
2023/01/30 00:28:17;;;;;;;21.33;11.65;;;;;;;-0.41;77.17;100272.16;343286;28;1046;-69
2023/01/30 00:28:28;;;;;;;20.70;11.82;;;;;;;-0.56;77.45;100269.28;343774;28;1091;-69
2023/01/30 00:28:41;;;;;;;21.15;11.80;;;;;;;-0.53;77.67;100274.47;343531;28;1053;-70
2023/01/30 00:28:55;;;;;;;21.52;11.70;;;;;;;-0.51;77.85;100279.59;343623;28;1189;-69
2023/01/30 00:29:07;;;;;;;21.40;11.77;;;;;;;-0.43;77.29;100273.81;343429;28;1298;-69
2023/01/30 00:29:22;;;;;;;20.15;11.98;;;;;;;-0.42;77.60;100277.25;343619;28;1031;-69
2023/01/30 00:29:34;;;;;;;19.52;11.52;;;;;;;-0.52;77.90;100273.63;343652;28;1150;-67
2023/01/30 00:29:46;;;;;;;19.02;11.25;;;;;;;-0.47;77.56;100274.59;343251;28;1040;-68
2023/01/30 00:30:13;;;;;;;22.10;11.75;;;;;;;-0.44;77.43;100274.66;343413;28;1282;-68
2023/01/30 00:30:25;;;;;;;21.10;11.93;;;;;;;-0.43;77.79;100280.63;343563;28;1060;-68
2023/01/30 00:30:37;;;;;;;20.75;11.98;;;;;;;-0.42;77.30;100278.13;343440;28;1242;-68
2023/01/30 00:30:50;;;;;;;20.60;11.52;;;;;;;-0.38;77.30;100280.72;343337;28;1052;-68
2023/01/30 00:31:02;;;;;;;21.45;11.30;;;;;;;-0.42;77.07;100283.22;343530;28;1067;-68
2023/01/30 00:31:14;;;;;;;21.40;11.38;;;;;;;-0.41;77.54;100284.94;342295;28;1032;-68
2023/01/30 00:31:26;;;;;;;19.88;11.48;;;;;;;-0.37;77.14;100285.03;342199;28;1169;-68
2023/01/30 00:31:38;;;;;;;20.45;11.57;;;;;;;-0.30;77.51;100281.75;342107;28;1153;-68
2023/01/30 00:31:51;;;;;;;21.00;11.63;;;;;;;-0.30;77.54;100286.84;342922;28;1059;-68
2023/01/30 00:32:03;;;;;;;21.30;11.80;;;;;;;-0.33;77.36;100287.66;343389;28;1076;-68
2023/01/30 00:32:15;;;;;;;21.30;11.85;;;;;;;-0.32;77.23;100285.97;342956;28;1104;-67
2023/01/30 00:32:27;;;;;;;20.20;11.65;;;;;;;-0.27;76.81;100286.94;343539;28;1075;-67
2023/01/30 00:32:39;;;;;;;20.38;11.55;;;;;;;-0.30;77.16;100286.84;343717;28;1147;-68
2023/01/30 00:32:58;;;;;;;20.23;11.35;;;;;;;-0.37;77.53;100293.53;343582;28;1055;-67
2023/01/30 00:33:10;;;;;;;18.90;11.05;;;;;;;-0.36;77.28;100281.63;343394;28;1013;-68
2023/01/30 00:33:24;;;;;;;18.83;11.18;;;;;;;-0.34;77.19;100285.97;343361;28;1291;-68
2023/01/30 00:33:37;;;;;;;20.33;11.25;;;;;;;-0.31;77.25;100291.13;343634;28;1033;-68
2023/01/30 00:33:49;;;;;;;20.98;11.30;;;;;;;-0.36;77.29;100287.63;343513;28;1319;-68
2023/01/30 00:34:01;;;;;;;20.02;11.30;;;;;;;-0.43;77.03;100289.16;343277;28;1350;-68
2023/01/30 00:34:16;;;;;;;20.30;11.75;;;;;;;-0.39;77.69;100292.63;343785;28;1071;-67
2023/01/30 00:34:28;;;;;;;21.30;12.13;;;;;;;-0.33;76.97;100291.91;343325;28;1981;-68
2023/01/30 00:34:40;;;;;;;22.00;12.27;;;;;;;-0.34;77.46;100295.28;343369;28;1080;-68
2023/01/30 00:34:52;;;;;;;22.25;12.30;;;;;;;-0.36;76.87;100292.72;343500;28;1218;-68
2023/01/30 00:35:05;;;;;;;22.00;12.07;;;;;;;-0.37;77.48;100292.69;343543;28;1103;-68
2023/01/30 00:35:17;;;;;;;20.52;11.70;;;;;;;-0.30;76.96;100287.75;343457;28;1150;-68
2023/01/30 00:35:29;;;;;;;20.38;11.77;;;;;;;-0.31;77.14;100291.13;344830;28;1689;-69
2023/01/30 00:35:45;;;;;;;20.13;11.68;;;;;;;-0.28;77.08;100288.63;344992;28;1094;-68
2023/01/30 00:36:00;;;;;;;20.50;11.90;;;;;;;-0.41;77.19;100295.16;344940;28;1323;-68
2023/01/30 00:36:12;;;;;;;20.60;11.77;;;;;;;-0.43;77.66;100285.75;344865;28;975;-68
2023/01/30 00:36:24;;;;;;;20.02;11.77;;;;;;;-0.39;77.26;100291.78;345044;28;1012;-69
2023/01/30 00:36:36;;;;;;;19.98;11.75;;;;;;;-0.39;77.19;100290.09;343621;28;1057;-68
2023/01/30 00:36:48;;;;;;;20.08;11.77;;;;;;;-0.52;77.82;100285.56;343588;28;1108;-69
2023/01/30 00:37:18;;;;;;;20.02;11.40;;;;;;;-0.54;78.16;100292.28;343464;28;1043;-68
2023/01/30 00:37:30;;;;;;;21.40;11.63;;;;;;;-0.53;78.17;100294.03;343181;28;1179;-68
2023/01/30 00:37:42;;;;;;;21.23;11.65;;;;;;;-0.53;77.83;100289.78;343376;28;1048;-68
2023/01/30 00:37:56;;;;;;;20.88;12.00;;;;;;;-0.49;78.07;100295.81;343353;28;1282;-69
2023/01/30 00:38:09;;;;;;;20.88;11.77;;;;;;;-0.46;78.24;100296.75;343489;28;1217;-69
2023/01/30 00:38:22;;;;;;;22.05;11.57;;;;;;;-0.39;77.88;100297.75;343528;28;1079;-68
2023/01/30 00:38:34;;;;;;;20.73;11.52;;;;;;;-0.42;78.21;100288.34;343577;28;1071;-68
2023/01/30 00:38:46;;;;;;;19.90;11.60;;;;;;;-0.44;77.87;100301.91;344955;28;1105;-68
2023/01/30 00:38:58;;;;;;;20.95;11.52;;;;;;;-0.34;77.92;100301.28;344853;28;1010;-68
2023/01/30 00:39:10;;;;;;;22.50;11.68;;;;;;;-0.30;77.66;100302.19;344785;28;1072;-68
2023/01/30 00:39:22;;;;;;;20.52;11.35;;;;;;;-0.27;77.95;100299.72;345033;28;1043;-68
2023/01/30 00:39:34;;;;;;;20.67;11.35;;;;;;;-0.24;77.40;100299.78;345121;28;1343;-68
2023/01/30 00:39:46;;;;;;;21.55;11.52;;;;;;;-0.18;76.90;100297.38;345021;28;1155;-68
2023/01/30 00:39:58;;;;;;;21.63;11.68;;;;;;;-0.21;77.36;100298.16;345034;28;1108;-68
2023/01/30 00:40:10;;;;;;;20.23;11.55;;;;;;;-0.25;77.06;100295.50;344955;28;1185;-68
2023/01/30 00:40:24;;;;;;;20.52;11.65;;;;;;;-0.25;76.60;100305.72;344854;28;1066;-68
2023/01/30 00:40:36;;;;;;;21.05;12.15;;;;;;;-0.26;77.01;100299.75;344840;28;1039;-68
2023/01/30 00:40:48;;;;;;;20.85;12.32;;;;;;;-0.48;77.37;100303.53;344960;28;1152;-67
2023/01/30 00:41:00;;;;;;;20.48;11.93;;;;;;;-0.54;77.35;100298.28;344881;28;1024;-69
2023/01/30 00:41:14;;;;;;;20.13;11.27;;;;;;;-0.54;78.22;100308.50;344801;28;1481;-68
2023/01/30 00:47:04;;;;;;;19.25;10.98;;;;;;;-0.52;77.47;100306.84;345127;28;1047;-68
2023/01/30 00:47:04;;;;;;;21.55;11.55;;;;;;;-0.24;77.30;100297.25;344831;28;1008;-69
2023/01/30 00:47:16;;;;;;;20.98;11.98;;;;;;;-0.28;77.72;100288.63;344816;28;1119;-68
2023/01/30 00:47:28;;;;;;;21.02;11.93;;;;;;;-0.29;77.29;100293.72;345239;28;1220;-68
2023/01/30 00:47:40;;;;;;;21.70;12.20;;;;;;;-0.32;76.81;100289.41;344997;28;996;-67
2023/01/30 00:47:56;;;;;;;21.02;12.20;;;;;;;-0.38;77.63;100298.59;345073;28;1042;-69
2023/01/30 00:48:08;;;;;;;20.80;11.60;;;;;;;-0.42;77.23;100293.44;344752;28;1432;-68
2023/01/30 00:48:21;;;;;;;21.33;11.23;;;;;;;-0.41;77.17;100290.03;343441;28;1055;-68
2023/01/30 00:48:33;;;;;;;22.23;11.43;;;;;;;-0.41;77.96;100290.03;344864;28;1126;-68
2023/01/30 00:48:45;;;;;;;23.13;11.55;;;;;;;-0.37;77.66;100295.25;343700;28;1031;-68
2023/01/30 00:48:57;;;;;;;22.67;11.55;;;;;;;-0.32;77.38;100293.63;343472;28;1024;-68
2023/01/30 00:49:11;;;;;;;23.35;12.10;;;;;;;-0.41;77.20;100289.19;343471;28;1028;-69
2023/01/30 00:49:23;;;;;;;21.55;12.00;;;;;;;-0.41;78.04;100287.50;343466;28;1068;-69
2023/01/30 00:49:36;;;;;;;21.30;12.00;;;;;;;-0.38;77.69;100283.28;343526;28;1770;-70
2023/01/30 00:49:48;;;;;;;21.33;11.63;;;;;;;-0.27;78.09;100284.38;343560;28;1111;-68
2023/01/30 00:50:00;;;;;;;21.85;11.75;;;;;;;-0.25;77.96;100278.47;343563;28;1217;-69
2023/01/30 00:50:12;;;;;;;22.10;11.77;;;;;;;-0.20;77.94;100281.16;343413;28;1139;-68
2023/01/30 00:50:24;;;;;;;21.70;11.85;;;;;;;-0.20;77.09;100281.16;343641;28;1071;-68
2023/01/30 00:50:42;;;;;;;20.35;11.27;;;;;;;-0.23;76.77;100279.38;343700;28;1194;-68
2023/01/30 00:50:54;;;;;;;21.73;11.23;;;;;;;-0.24;76.83;100281.91;344950;28;1067;-68
2023/01/30 00:51:06;;;;;;;22.23;11.68;;;;;;;-0.21;77.39;100281.97;345025;28;1059;-68
2023/01/30 00:51:18;;;;;;;23.30;12.13;;;;;;;-0.18;76.83;100281.16;345128;28;1078;-69
2023/01/30 00:51:30;;;;;;;22.02;11.43;;;;;;;-0.20;77.28;100281.16;345079;28;1043;-69
2023/01/30 00:51:42;;;;;;;22.65;11.63;;;;;;;-0.21;77.02;100284.50;345068;28;1239;-69
2023/01/30 00:51:57;;;;;;;20.00;11.57;;;;;;;-0.23;76.78;100288.72;345031;28;1039;-70
2023/01/30 00:52:09;;;;;;;19.42;11.35;;;;;;;-0.27;77.43;100292.91;344904;28;1019;-68
2023/01/30 00:52:24;;;;;;;21.60;11.75;;;;;;;-0.31;76.97;100287.72;343463;28;1083;-68
2023/01/30 00:52:36;;;;;;;21.73;11.63;;;;;;;-0.28;77.82;100285.19;343466;28;1044;-68
2023/01/30 00:52:48;;;;;;;19.67;11.07;;;;;;;-0.26;76.98;100293.78;343445;28;1052;-68
2023/01/30 00:53:00;;;;;;;19.55;11.20;;;;;;;-0.26;77.53;100288.69;343317;28;1008;-68
2023/01/30 00:53:15;;;;;;;20.63;11.38;;;;;;;-0.24;77.22;100297.25;343435;28;1165;-68
2023/01/30 00:53:27;;;;;;;19.92;11.45;;;;;;;-0.24;77.35;100290.44;343634;28;1353;-68
2023/01/30 00:53:39;;;;;;;20.08;11.63;;;;;;;-0.33;77.51;100291.91;343857;28;752;-68
2023/01/30 00:53:53;;;;;;;20.55;11.80;;;;;;;-0.30;77.72;100286.84;343835;28;1339;-68
2023/01/30 00:54:05;;;;;;;20.98;11.80;;;;;;;-0.35;77.21;100289.31;343389;28;1306;-67
2023/01/30 00:54:17;;;;;;;20.85;11.77;;;;;;;-0.35;77.54;100288.47;343327;28;1020;-68
2023/01/30 00:54:30;;;;;;;22.40;12.27;;;;;;;-0.32;77.50;100285.97;344030;28;1192;-67
2023/01/30 00:54:42;;;;;;;23.00;12.18;;;;;;;-0.36;77.54;100295.28;343374;28;1329;-67
2023/01/30 00:54:53;;;;;;;21.88;11.93;;;;;;;-0.32;77.29;100291.06;343533;28;1088;-67
2023/01/30 00:55:06;;;;;;;21.33;11.63;;;;;;;-0.28;77.31;100297.97;343614;28;1119;-70
2023/01/30 00:55:18;;;;;;;22.20;11.70;;;;;;;-0.31;77.81;100298.78;343422;28;1206;-69
2023/01/30 00:55:30;;;;;;;21.38;11.70;;;;;;;-0.33;77.67;100294.47;343405;28;1026;-69
2023/01/30 00:55:43;;;;;;;21.73;11.45;;;;;;;-0.28;78.04;100297.97;344091;28;1023;-69
2023/01/30 00:55:55;;;;;;;21.02;11.32;;;;;;;-0.27;77.53;100297.16;345002;28;1906;-70
2023/01/30 00:56:07;;;;;;;20.90;11.40;;;;;;;-0.22;77.87;100286.22;345055;28;1206;-71
2023/01/30 00:56:20;;;;;;;21.38;11.85;;;;;;;-0.24;77.52;100297.25;345065;28;1474;-68
2023/01/30 00:56:32;;;;;;;22.58;12.27;;;;;;;-0.25;77.33;100290.38;344810;28;1107;-68
2023/01/30 00:56:44;;;;;;;22.40;12.30;;;;;;;-0.24;77.81;100297.25;345114;28;1190;-68
2023/01/30 00:56:56;;;;;;;25.63;12.15;;;;;;;-0.32;77.72;100291.06;345663;28;1591;-68
2023/01/30 00:57:08;;;;;;;24.40;11.65;;;;;;;-0.37;78.00;100292.69;344945;28;1149;-68
2023/01/30 00:57:20;;;;;;;21.58;11.30;;;;;;;-0.35;77.98;100294.44;344584;28;1790;-69
2023/01/30 00:57:32;;;;;;;21.35;11.63;;;;;;;-0.40;77.93;100293.50;345005;28;1176;-70
2023/01/30 00:57:44;;;;;;;20.30;11.77;;;;;;;-0.42;77.43;100293.44;345108;28;1058;-70
2023/01/30 00:57:56;;;;;;;19.75;11.25;;;;;;;-0.52;78.20;100290.66;345096;28;1164;-69
2023/01/30 00:58:08;;;;;;;21.33;11.45;;;;;;;-0.46;77.82;100296.75;345055;28;1027;-70
2023/01/30 00:58:22;;;;;;;21.50;11.45;;;;;;;-0.50;77.82;100300.06;344999;28;1081;-69
2023/01/30 00:58:37;;;;;;;21.13;11.68;;;;;;;-0.45;78.50;100292.50;345350;28;1112;-68
2023/01/30 00:58:48;;;;;;;22.45;11.88;;;;;;;-0.38;78.45;100288.38;346357;28;1027;-68
2023/01/30 00:59:01;;;;;;;22.00;11.32;;;;;;;-0.34;78.20;100290.19;346402;28;1271;-68
2023/01/30 00:59:13;;;;;;;22.13;11.70;;;;;;;-0.30;77.49;100297.06;346112;28;1055;-68
2023/01/30 00:59:26;;;;;;;23.42;12.10;;;;;;;-0.28;77.51;100297.97;346004;28;1262;-68
2023/01/30 00:59:38;;;;;;;21.70;11.70;;;;;;;-0.30;77.82;100297.06;346438;28;1089;-68
2023/01/30 00:59:53;;;;;;;21.58;11.40;;;;;;;-0.43;77.98;100296.81;346439;28;1276;-68
2023/01/30 01:00:07;;;;;;;22.00;11.50;;;;;;;-0.46;78.23;100301.00;346321;28;1158;-68
2023/01/30 01:00:19;;;;;;;21.77;11.82;;;;;;;-0.42;78.29;100298.56;346293;28;1070;-67
2023/01/30 01:00:32;;;;;;;22.70;11.93;;;;;;;-0.39;78.33;100295.19;346426;28;1038;-67
2023/01/30 01:00:44;;;;;;;23.80;12.18;;;;;;;-0.43;77.69;100307.03;346371;28;1195;-67
2023/01/30 01:00:56;;;;;;;23.27;11.75;;;;;;;-0.37;78.44;100300.34;346423;28;1315;-68
2023/01/30 01:01:08;;;;;;;22.58;11.43;;;;;;;-0.41;78.36;100299.41;346440;28;1162;-69
2023/01/30 01:01:20;;;;;;;21.85;11.23;;;;;;;-0.43;78.04;100307.03;346354;28;1141;-68
2023/01/30 01:01:32;;;;;;;22.25;11.52;;;;;;;-0.44;78.28;100299.34;346198;28;1062;-67
2023/01/30 01:01:44;;;;;;;24.23;12.07;;;;;;;-0.43;77.80;100301.91;345032;28;1071;-68
2023/01/30 01:01:56;;;;;;;24.38;12.45;;;;;;;-0.37;77.67;100300.34;344896;28;1302;-68
2023/01/30 01:02:08;;;;;;;22.40;12.27;;;;;;;-0.41;77.76;100302.81;344976;28;1289;-70
2023/01/30 01:02:20;;;;;;;21.08;11.90;;;;;;;-0.31;78.19;100297.91;344820;28;1072;-70
2023/01/30 01:02:32;;;;;;;20.02;11.40;;;;;;;-0.44;77.58;100297.66;345057;28;1587;-70
2023/01/30 01:02:44;;;;;;;21.75;12.35;;;;;;;-0.48;78.24;100303.53;344640;28;1075;-68
2023/01/30 01:02:56;;;;;;;21.52;12.63;;;;;;;-0.44;78.51;100295.09;344867;28;1079;-67
2023/01/30 01:03:08;;;;;;;20.50;12.15;;;;;;;-0.42;78.25;100296.00;345032;28;1125;-68
2023/01/30 01:03:21;;;;;;;21.70;11.98;;;;;;;-0.51;78.50;100293.22;344897;28;1046;-68
2023/01/30 01:03:33;;;;;;;22.30;11.55;;;;;;;-0.44;78.16;100290.00;344784;28;1140;-68
2023/01/30 01:03:45;;;;;;;21.85;11.40;;;;;;;-0.41;78.01;100297.72;345371;28;1072;-68
2023/01/30 01:03:57;;;;;;;20.97;11.43;;;;;;;-0.40;77.89;100290.94;346180;28;1205;-68
2023/01/30 01:04:09;;;;;;;20.70;11.48;;;;;;;-0.38;78.43;100289.28;346301;28;1411;-68
2023/01/30 01:04:21;;;;;;;21.35;11.27;;;;;;;-0.31;77.66;100285.16;346234;28;1039;-69